createdAt,value
2023-01-19T00:04:26.905Z,23.90
2023-01-19T00:07:54.021Z,25.20
2023-01-19T00:11:19.741Z,25.20
2023-01-19T00:14:09.810Z,26.20
2023-01-19T00:17:35.790Z,25.40
2023-01-19T00:20:36.493Z,27.20
2023-01-19T00:23:25.235Z,27.20
2023-01-19T00:26:14.400Z,23.80
2023-01-19T00:29:05.905Z,27.00
2023-01-19T00:32:19.422Z,26.40
2023-01-19T00:35:27.362Z,25.00
2023-01-19T00:38:04.755Z,25.10
2023-01-19T00:40:57.077Z,26.00
2023-01-19T00:44:24.921Z,26.90
2023-01-19T00:47:33.337Z,25.40
2023-01-19T00:50:53.991Z,26.10
2023-01-19T00:54:22.651Z,26.00
2023-01-19T00:57:32.742Z,26.00
2023-01-19T01:00:42.438Z,24.20
2023-01-19T01:04:10.828Z,25.20
2023-01-19T01:07:37.630Z,25.60
2023-01-19T01:10:47.865Z,24.60
2023-01-19T01:14:14.642Z,24.50
2023-01-19T01:17:11.934Z,24.40
2023-01-19T01:20:23.053Z,23.80
2023-01-19T01:23:50.188Z,23.40
2023-01-19T01:27:02.892Z,23.50
2023-01-19T01:30:31.155Z,23.80
2023-01-19T01:33:41.219Z,22.40
2023-01-19T01:37:09.466Z,21.30
2023-01-19T01:40:36.368Z,22.80
2023-01-19T01:44:03.383Z,21.60
2023-01-19T01:47:07.400Z,22.40
2023-01-19T01:50:06.952Z,21.90
2023-01-19T01:53:18.765Z,21.60
2023-01-19T01:56:14.003Z,21.30
2023-01-19T01:59:24.755Z,21.20
2023-01-19T02:05:37.222Z,21.00
2023-01-19T02:09:01.905Z,21.40
2023-01-19T02:12:28.252Z,20.10
2023-01-19T02:15:35.454Z,21.30
2023-01-19T02:18:43.899Z,20.80
2023-01-19T02:21:33.286Z,20.10
2023-01-19T02:24:41.957Z,20.30
2023-01-19T02:28:12.826Z,19.80
2023-01-19T02:31:21.282Z,20.70
2023-01-19T02:34:39.405Z,20.00
2023-01-19T02:40:54.490Z,19.00
2023-01-19T02:44:21.871Z,19.10
2023-01-19T02:47:31.221Z,19.70
2023-01-19T02:51:22.344Z,19.80
2023-01-19T02:54:26.280Z,20.10
2023-01-19T02:58:05.224Z,19.80
2023-01-19T03:01:18.527Z,19.00
2023-01-19T03:04:23.425Z,19.40
2023-01-19T03:07:23.080Z,19.00
2023-01-19T03:11:05.287Z,19.20
2023-01-19T03:14:19.026Z,18.90
2023-01-19T03:17:48.298Z,19.40
2023-01-19T03:20:55.085Z,19.10
2023-01-19T03:24:06.721Z,19.80
2023-01-19T03:27:00.053Z,20.70
2023-01-19T03:30:15.932Z,19.10
2023-01-19T03:33:49.285Z,20.80
2023-01-19T03:36:57.383Z,21.30
2023-01-19T03:39:35.628Z,19.80
2023-01-19T03:42:26.721Z,20.10
2023-01-19T03:45:04.119Z,19.30
2023-01-19T03:48:33.826Z,19.00
2023-01-19T03:51:47.671Z,19.70
2023-01-19T03:55:14.603Z,18.60
2023-01-19T03:57:47.197Z,19.60
2023-01-19T04:00:15.801Z,18.80
2023-01-19T04:03:07.134Z,18.80
2023-01-19T04:05:40.799Z,19.60
2023-01-19T04:08:08.983Z,18.80
2023-01-19T04:10:36.761Z,19.40
2023-01-19T04:13:05.679Z,18.70
2023-01-19T04:15:33.601Z,19.40
2023-01-19T04:18:04.327Z,19.00
2023-01-19T04:20:32.569Z,18.90
2023-01-19T04:23:02.190Z,19.00
2023-01-19T04:25:31.144Z,18.00
2023-01-19T04:27:58.932Z,17.50
2023-01-19T04:30:27.986Z,16.60
2023-01-19T04:32:56.801Z,18.10
2023-01-19T04:35:25.044Z,18.20
2023-01-19T04:37:52.212Z,18.50
2023-01-19T04:40:20.153Z,18.50
2023-01-19T04:42:50.653Z,18.10
2023-01-19T04:45:17.797Z,17.20
2023-01-19T04:47:44.900Z,17.60
2023-01-19T04:50:12.883Z,17.90
2023-01-19T04:52:40.540Z,16.60
2023-01-19T04:55:08.409Z,16.70
2023-01-19T04:57:36.140Z,16.70
2023-01-19T05:00:07.837Z,17.30
2023-01-19T05:02:36.330Z,17.30
2023-01-19T05:05:05.122Z,17.40
2023-01-19T05:07:33.252Z,17.20
2023-01-19T05:10:01.819Z,17.70
2023-01-19T05:12:29.893Z,17.80
2023-01-19T05:14:57.770Z,17.70
2023-01-19T05:17:26.603Z,18.10
2023-01-19T05:19:55.769Z,17.50
2023-01-19T05:22:24.997Z,16.50
2023-01-19T05:24:52.323Z,15.60
2023-01-19T05:27:20.380Z,16.50
2023-01-19T05:29:49.326Z,16.80
2023-01-19T05:32:17.552Z,16.10
2023-01-19T05:34:45.547Z,15.60
2023-01-19T05:37:12.989Z,15.00
2023-01-19T05:39:40.269Z,15.20
2023-01-19T05:42:07.956Z,15.20
2023-01-19T05:44:35.116Z,14.00
2023-01-19T05:47:02.227Z,14.40
2023-01-19T05:49:29.845Z,14.60
2023-01-19T05:51:56.894Z,13.90
2023-01-19T05:54:24.989Z,14.30
2023-01-19T05:56:52.902Z,13.40
2023-01-19T05:59:24.461Z,14.20
2023-01-19T06:01:52.647Z,13.20
2023-01-19T06:04:21.186Z,14.00
2023-01-19T06:06:50.250Z,13.90
2023-01-19T06:09:18.661Z,13.80
2023-01-19T06:11:46.821Z,13.40
2023-01-19T06:14:15.642Z,14.70
2023-01-19T06:16:42.536Z,14.00
2023-01-19T06:19:10.791Z,13.50
2023-01-19T06:21:38.171Z,13.10
2023-01-19T06:24:05.782Z,13.20
2023-01-19T06:26:33.419Z,13.00
2023-01-19T06:29:00.570Z,13.50
2023-01-19T06:31:27.688Z,12.80
2023-01-19T06:33:56.529Z,13.20
2023-01-19T06:36:24.232Z,12.40
2023-01-19T06:38:52.153Z,14.10
2023-01-19T06:41:19.807Z,13.60
2023-01-19T06:43:46.795Z,13.00
2023-01-19T06:46:14.040Z,13.50
2023-01-19T06:48:41.817Z,13.70
2023-01-19T06:51:08.989Z,13.60
2023-01-19T06:53:36.237Z,14.10
2023-01-19T06:56:05.490Z,13.80
2023-01-19T06:58:35.197Z,13.80
2023-01-19T07:01:06.311Z,14.90
2023-01-19T07:03:35.503Z,15.00
2023-01-19T07:06:03.439Z,14.40
2023-01-19T07:08:31.273Z,14.70
2023-01-19T07:11:25.305Z,15.20
2023-01-19T07:13:56.868Z,15.00
2023-01-19T07:16:24.518Z,14.50
2023-01-19T07:18:51.729Z,15.40
2023-01-19T07:21:19.525Z,16.60
2023-01-19T07:23:52.281Z,17.40
2023-01-19T07:26:22.258Z,17.40
2023-01-19T07:28:50.034Z,16.70
2023-01-19T07:31:19.489Z,15.40
2023-01-19T07:33:48.078Z,16.20
2023-01-19T07:36:15.603Z,15.60
2023-01-19T07:38:43.221Z,17.00
2023-01-19T07:41:11.876Z,18.90
2023-01-19T07:43:39.918Z,16.10
2023-01-19T07:46:09.196Z,14.70
2023-01-19T07:48:36.690Z,15.10
2023-01-19T07:51:11.773Z,16.70
2023-01-19T07:53:41.251Z,17.10
2023-01-19T07:56:08.716Z,17.80
2023-01-19T07:58:36.014Z,19.20
2023-01-19T08:01:14.557Z,20.30
2023-01-19T08:03:42.677Z,19.20
2023-01-19T08:06:24.231Z,18.20
2023-01-19T08:08:51.332Z,19.10
2023-01-19T08:11:19.273Z,19.10
2023-01-19T08:13:47.308Z,20.00
2023-01-19T08:16:15.145Z,21.40
2023-01-19T08:18:43.547Z,20.30
2023-01-19T08:21:10.949Z,19.90
2023-01-19T08:23:38.286Z,20.60
2023-01-19T08:26:30.566Z,21.10
2023-01-19T08:29:04.270Z,20.90
2023-01-19T08:31:35.911Z,22.00
2023-01-19T08:34:03.592Z,19.80
2023-01-19T08:36:30.677Z,20.10
2023-01-19T08:38:58.654Z,20.80
2023-01-19T08:41:28.655Z,20.10
2023-01-19T08:44:03.322Z,22.70
2023-01-19T08:46:31.864Z,24.70
2023-01-19T08:49:00.773Z,25.70
2023-01-19T08:51:31.104Z,24.10
2023-01-19T08:53:58.200Z,25.70
2023-01-19T08:56:26.225Z,25.10
2023-01-19T08:59:08.167Z,25.10
2023-01-19T09:01:37.521Z,23.80
2023-01-19T09:04:07.200Z,25.30
2023-01-19T09:06:37.612Z,26.40
2023-01-19T09:09:09.780Z,27.30
2023-01-19T09:11:41.280Z,25.80
2023-01-19T09:14:08.916Z,29.40
2023-01-19T09:16:49.321Z,27.90
2023-01-19T09:19:16.807Z,29.00
2023-01-19T09:21:57.570Z,28.30
2023-01-19T09:24:27.552Z,30.00
2023-01-19T09:26:56.842Z,31.20
2023-01-19T09:29:31.339Z,30.90
2023-01-19T09:32:01.641Z,30.70
2023-01-19T09:34:28.809Z,32.80
2023-01-19T09:37:20.975Z,32.80
2023-01-19T09:40:08.626Z,32.10
2023-01-19T09:43:16.492Z,31.50
2023-01-19T09:45:54.654Z,31.40
2023-01-19T09:48:51.292Z,32.80
2023-01-19T09:51:26.312Z,33.20
2023-01-19T09:54:01.168Z,34.20
2023-01-19T09:56:30.997Z,35.90
2023-01-19T09:58:59.485Z,33.90
2023-01-19T10:01:36.391Z,35.80
2023-01-19T10:04:26.722Z,35.80
2023-01-19T10:07:01.108Z,35.80
2023-01-19T10:09:54.345Z,36.30
2023-01-19T10:13:08.812Z,35.10
2023-01-19T10:15:54.614Z,39.10
2023-01-19T10:19:05.343Z,36.70
2023-01-19T10:21:47.883Z,38.30
2023-01-19T10:24:31.342Z,38.10
2023-01-19T10:27:18.491Z,37.90
2023-01-19T10:30:40.244Z,36.10
2023-01-19T10:33:29.240Z,36.80
2023-01-19T10:35:59.144Z,35.80
2023-01-19T10:38:29.448Z,34.30
2023-01-19T10:41:07.094Z,32.80
2023-01-19T10:43:44.753Z,33.90
2023-01-19T10:46:23.772Z,31.30
2023-01-19T10:49:31.801Z,28.20
2023-01-19T10:52:00.591Z,30.40
2023-01-19T10:54:35.549Z,30.60
2023-01-19T10:57:11.489Z,30.40
2023-01-19T10:59:52.852Z,32.60
2023-01-19T11:02:29.631Z,34.20
2023-01-19T11:05:22.656Z,30.60
2023-01-19T11:07:50.468Z,33.20
2023-01-19T11:10:21.438Z,33.50
2023-01-19T11:13:06.876Z,30.20
2023-01-19T11:15:46.248Z,31.80
2023-01-19T11:18:30.392Z,34.50
2023-01-19T11:21:07.573Z,32.50
2023-01-19T11:24:03.448Z,34.60
2023-01-19T11:26:37.448Z,31.60
2023-01-19T11:29:06.963Z,35.00
2023-01-19T11:31:55.806Z,33.00
2023-01-19T11:34:52.942Z,33.50
2023-01-19T11:37:20.704Z,34.70
2023-01-19T11:40:04.733Z,31.70
2023-01-19T11:43:06.800Z,32.20
2023-01-19T11:45:56.657Z,28.50
2023-01-19T11:49:00.750Z,31.30
2023-01-19T11:52:01.739Z,30.70
2023-01-19T11:55:27.082Z,27.30
2023-01-19T11:58:54.236Z,27.00
2023-01-19T12:02:19.207Z,26.10
2023-01-19T12:05:49.133Z,28.00
2023-01-19T12:09:33.664Z,28.80
2023-01-19T12:13:12.934Z,26.50
2023-01-19T12:16:12.807Z,28.10
2023-01-19T12:19:45.288Z,28.50
2023-01-19T12:22:59.871Z,27.30
2023-01-19T12:25:58.924Z,26.70
2023-01-19T12:28:40.980Z,25.60
2023-01-19T12:31:21.963Z,26.70
2023-01-19T12:33:55.072Z,24.30
2023-01-19T12:36:31.782Z,25.50
2023-01-19T12:39:09.059Z,23.80
2023-01-19T12:41:58.922Z,24.20
2023-01-19T12:45:08.461Z,24.40
2023-01-19T12:48:14.664Z,24.90
2023-01-19T12:50:50.358Z,23.00
2023-01-19T12:53:23.947Z,22.50
2023-01-19T12:56:22.641Z,20.80
2023-01-19T12:58:51.193Z,22.80
2023-01-19T13:01:22.157Z,21.00
2023-01-19T13:04:10.550Z,24.00
2023-01-19T13:06:54.561Z,20.50
2023-01-19T13:09:39.167Z,23.00
2023-01-19T13:12:35.013Z,23.30
2023-01-19T13:15:31.712Z,23.40
2023-01-19T13:18:06.646Z,22.00
2023-01-19T13:21:14.526Z,22.10
2023-01-19T13:24:30.805Z,21.50
2023-01-19T13:28:07.533Z,22.00
2023-01-19T13:31:16.981Z,21.50
2023-01-19T13:33:56.861Z,21.50
2023-01-19T13:37:14.700Z,21.00
2023-01-19T13:40:11.501Z,21.60
2023-01-19T13:43:00.901Z,22.00
2023-01-19T13:46:03.027Z,21.70
2023-01-19T13:48:35.531Z,20.30
2023-01-19T13:51:08.463Z,22.20
2023-01-19T13:53:37.317Z,23.40
2023-01-19T13:56:21.051Z,21.20
2023-01-19T13:59:13.359Z,21.90
2023-01-19T14:01:52.578Z,20.50
2023-01-19T14:04:50.171Z,39.00
2023-01-19T14:07:27.281Z,22.20
2023-01-19T14:10:04.792Z,21.50
2023-01-19T14:12:38.171Z,22.50
2023-01-19T14:15:21.480Z,23.90
2023-01-19T14:18:09.465Z,23.20
2023-01-19T14:20:39.348Z,23.20
2023-01-19T14:23:27.627Z,23.80
2023-01-19T14:25:55.785Z,25.60
2023-01-19T14:28:47.015Z,24.00
2023-01-19T14:31:25.278Z,24.80
2023-01-19T14:33:57.136Z,25.90
2023-01-19T14:36:28.841Z,25.50
2023-01-19T14:39:04.758Z,26.30
2023-01-19T14:41:38.904Z,23.50
2023-01-19T14:44:28.842Z,25.70
2023-01-19T14:46:59.930Z,28.00
2023-01-19T14:49:40.239Z,27.10
2023-01-19T14:52:27.245Z,26.20
2023-01-19T14:54:58.146Z,26.80
2023-01-19T14:57:25.602Z,25.00
2023-01-19T14:59:53.186Z,26.90
2023-01-19T15:02:21.445Z,28.30
2023-01-19T15:04:48.885Z,30.50
2023-01-19T15:07:20.924Z,30.00
2023-01-19T15:09:56.133Z,30.30
2023-01-19T15:12:26.474Z,28.00
2023-01-19T15:14:53.829Z,29.80
2023-01-19T15:17:26.868Z,27.70
2023-01-19T15:19:55.457Z,29.80
2023-01-19T15:22:31.762Z,32.20
2023-01-19T15:25:01.048Z,31.80
2023-01-19T15:27:42.933Z,32.70
2023-01-19T15:30:34.312Z,35.00
2023-01-19T15:33:04.637Z,35.00
2023-01-19T15:35:38.645Z,37.30
2023-01-19T15:38:10.683Z,37.50
2023-01-19T15:41:00.854Z,37.60
2023-01-19T15:43:34.424Z,37.00
2023-01-19T15:46:23.035Z,36.80
2023-01-19T15:48:56.520Z,36.10
2023-01-19T15:51:31.863Z,35.90
2023-01-19T15:54:03.755Z,38.40
2023-01-19T15:57:07.246Z,37.60
2023-01-19T16:00:03.929Z,33.50
2023-01-19T16:02:34.981Z,34.50
2023-01-19T16:05:10.704Z,38.40
2023-01-19T16:08:01.083Z,37.50
2023-01-19T16:10:45.103Z,36.60
2023-01-19T16:13:13.729Z,39.80
2023-01-19T16:15:44.813Z,31.30
2023-01-19T16:18:16.027Z,36.30
2023-01-19T16:20:43.438Z,35.80
2023-01-19T16:23:20.683Z,34.80
2023-01-19T16:25:59.927Z,34.10
2023-01-19T16:30:56.151Z,36.00
2023-01-19T16:33:24.063Z,37.20
2023-01-19T16:35:53.862Z,43.50
2023-01-19T16:38:41.521Z,33.80
2023-01-19T16:41:11.251Z,34.90
2023-01-19T16:43:38.899Z,40.00
2023-01-19T16:46:09.445Z,41.70
2023-01-19T16:48:47.987Z,41.20
2023-01-19T16:51:35.148Z,51.70
2023-01-19T16:54:04.254Z,47.20
2023-01-19T16:56:33.953Z,36.00
2023-01-19T16:59:23.516Z,35.80
2023-01-19T17:01:52.693Z,39.00
2023-01-19T17:04:22.926Z,42.10
2023-01-19T17:06:52.424Z,67.50
2023-01-19T17:09:20.199Z,41.80
2023-01-19T17:11:52.880Z,38.30
2023-01-19T17:14:26.010Z,41.50
2023-01-19T17:16:53.167Z,44.00
2023-01-19T17:19:25.013Z,38.60
2023-01-19T17:21:56.561Z,35.30
2023-01-19T17:24:29.298Z,36.70
2023-01-19T17:26:58.653Z,34.80
2023-01-19T17:29:29.026Z,35.20
2023-01-19T17:32:08.867Z,33.80
2023-01-19T17:34:36.175Z,41.30
2023-01-19T17:37:05.012Z,36.90
2023-01-19T17:39:36.978Z,35.90
2023-01-19T17:42:06.721Z,38.60
2023-01-19T17:44:35.031Z,36.30
2023-01-19T17:47:03.330Z,37.90
2023-01-19T17:49:35.709Z,37.50
2023-01-19T17:52:03.863Z,40.20
2023-01-19T17:54:32.454Z,37.40
2023-01-19T17:57:01.299Z,40.40
2023-01-19T17:59:28.807Z,39.90
2023-01-19T18:01:56.441Z,38.20
2023-01-19T18:04:23.857Z,65.30
2023-01-19T18:06:51.214Z,41.40
2023-01-19T18:09:39.727Z,39.90
2023-01-19T18:12:14.018Z,38.70
2023-01-19T18:14:41.968Z,38.50
2023-01-19T18:17:10.162Z,42.10
2023-01-19T18:19:38.487Z,37.60
2023-01-19T18:22:06.089Z,36.70
2023-01-19T18:24:33.600Z,43.80
2023-01-19T18:27:01.177Z,73.90
2023-01-19T18:29:29.517Z,56.20
2023-01-19T18:31:57.008Z,38.60
2023-01-19T18:34:27.294Z,43.30
2023-01-19T18:36:55.166Z,59.50
2023-01-19T18:39:22.570Z,43.10
2023-01-19T18:41:49.603Z,116.40
2023-01-19T18:44:22.779Z,159.70
2023-01-19T18:46:50.464Z,65.90
2023-01-19T18:49:17.748Z,62.90
2023-01-19T18:51:48.986Z,45.20
2023-01-19T18:54:18.044Z,44.80
2023-01-19T18:56:45.637Z,43.80
2023-01-19T18:59:13.846Z,37.40
2023-01-19T19:02:02.304Z,40.30
2023-01-19T19:04:31.092Z,39.60
2023-01-19T19:06:58.435Z,41.00
2023-01-19T19:09:25.652Z,38.50
2023-01-19T19:11:53.114Z,39.90
2023-01-19T19:14:21.039Z,37.30
2023-01-19T19:16:49.159Z,33.90
2023-01-19T19:19:17.089Z,36.00
2023-01-19T19:21:46.124Z,36.60
2023-01-19T19:24:14.498Z,35.10
2023-01-19T19:26:43.161Z,36.90
2023-01-19T19:29:12.378Z,34.70
2023-01-19T19:31:39.388Z,35.20
2023-01-19T19:34:07.033Z,34.30
2023-01-19T19:36:34.365Z,34.70
2023-01-19T19:39:01.816Z,36.60
2023-01-19T19:41:29.831Z,34.20
2023-01-19T19:43:58.587Z,34.10
2023-01-19T19:46:27.529Z,32.90
2023-01-19T19:48:57.969Z,33.00
2023-01-19T19:51:30.263Z,44.30
2023-01-19T19:54:00.504Z,50.20
2023-01-19T19:56:31.123Z,32.90
2023-01-19T19:59:24.672Z,32.70
2023-01-19T20:01:54.268Z,33.30
2023-01-19T20:04:23.206Z,32.20
2023-01-19T20:06:50.695Z,34.00
2023-01-19T20:09:18.952Z,34.30
2023-01-19T20:11:47.703Z,31.80
2023-01-19T20:14:17.135Z,63.50
2023-01-19T20:16:45.294Z,41.90
2023-01-19T20:19:14.416Z,42.50
2023-01-19T20:21:43.434Z,35.00
2023-01-19T20:24:15.712Z,35.50
2023-01-19T20:26:47.034Z,42.10
2023-01-19T20:29:14.829Z,48.90
2023-01-19T20:31:48.258Z,35.90
2023-01-19T20:34:20.765Z,30.70
2023-01-19T20:36:50.400Z,31.90
2023-01-19T20:39:24.862Z,35.50
2023-01-19T20:41:53.091Z,37.30
2023-01-19T20:44:24.027Z,28.30
2023-01-19T20:46:52.343Z,28.30
2023-01-19T20:49:20.209Z,29.30
2023-01-19T20:52:03.239Z,27.30
2023-01-19T20:54:30.980Z,24.80
2023-01-19T20:56:59.514Z,25.20
2023-01-19T20:59:34.696Z,25.80
2023-01-19T21:02:02.144Z,29.10
2023-01-19T21:04:29.687Z,26.40
2023-01-19T21:07:06.632Z,24.50
2023-01-19T21:09:35.335Z,22.50
2023-01-19T21:12:03.307Z,23.90
2023-01-19T21:14:34.252Z,26.60
2023-01-19T21:17:03.666Z,28.90
2023-01-19T21:19:32.747Z,29.50
2023-01-19T21:22:00.367Z,25.90
2023-01-19T21:25:07.440Z,29.90
2023-01-19T21:27:53.561Z,24.20
2023-01-19T21:30:41.344Z,26.90
2023-01-19T21:33:58.281Z,26.90
2023-01-19T21:37:10.718Z,25.60
2023-01-19T21:39:53.011Z,28.60
2023-01-19T21:43:01.096Z,32.30
2023-01-19T21:46:30.658Z,25.60
2023-01-19T21:50:20.861Z,28.10
2023-01-19T21:54:20.979Z,22.70
2023-01-19T21:58:08.619Z,23.50
2023-01-19T22:02:01.962Z,23.90
2023-01-19T22:05:49.680Z,22.40
2023-01-19T22:09:38.237Z,22.90
2023-01-19T22:12:54.543Z,21.30
2023-01-19T22:16:07.461Z,20.80
2023-01-19T22:19:41.584Z,20.20
2023-01-19T22:22:39.338Z,19.40
2023-01-19T22:26:03.449Z,20.10
2023-01-19T22:28:41.318Z,19.90
2023-01-19T22:31:13.136Z,17.90
2023-01-19T22:34:40.470Z,19.30
2023-01-19T22:37:47.855Z,18.50
2023-01-19T22:41:16.188Z,18.40
2023-01-19T22:44:43.349Z,19.00
2023-01-19T22:48:10.234Z,18.80
2023-01-19T22:51:10.218Z,18.40
2023-01-19T22:53:37.501Z,17.40
2023-01-19T22:56:24.597Z,18.40
2023-01-19T22:58:54.003Z,19.30
2023-01-19T23:01:24.652Z,18.50
2023-01-19T23:04:47.529Z,17.60
2023-01-19T23:07:36.216Z,17.20
2023-01-19T23:10:30.365Z,18.30
2023-01-19T23:13:01.524Z,19.10
2023-01-19T23:15:49.630Z,21.20
2023-01-19T23:18:28.976Z,18.20
2023-01-19T23:21:06.890Z,18.70
2023-01-19T23:23:56.207Z,19.50
2023-01-19T23:26:25.648Z,18.80
2023-01-19T23:29:39.162Z,19.10
2023-01-19T23:32:54.331Z,18.70
2023-01-19T23:35:22.082Z,18.30
2023-01-19T23:37:49.706Z,18.90
2023-01-19T23:40:18.610Z,18.50
2023-01-19T23:42:47.245Z,18.70
2023-01-19T23:45:14.867Z,18.80
2023-01-19T23:47:43.862Z,20.20
2023-01-19T23:50:11.866Z,19.10
2023-01-19T23:52:39.273Z,19.70
2023-01-19T23:55:07.557Z,19.70
2023-01-19T23:57:34.959Z,20.40
